createdAt,value
2017-05-29T00:00:23.458Z,14.52
2017-05-29T00:01:33.726Z,14.59
2017-05-29T00:02:44.002Z,14.61
2017-05-29T00:03:53.968Z,14.56
2017-05-29T00:05:03.298Z,14.56
2017-05-29T00:06:13.248Z,14.52
2017-05-29T00:07:23.205Z,14.58
2017-05-29T00:08:33.470Z,14.53
2017-05-29T00:09:43.419Z,14.55
2017-05-29T00:10:53.381Z,14.56
2017-05-29T00:12:03.022Z,14.49
2017-05-29T00:13:12.347Z,14.49
2017-05-29T00:14:22.617Z,14.53
2017-05-29T00:15:32.562Z,14.49
2017-05-29T00:16:42.829Z,14.56
2017-05-29T00:17:53.089Z,14.56
2017-05-29T00:19:03.354Z,14.51
2017-05-29T00:20:12.987Z,14.51
2017-05-29T00:21:22.630Z,14.55
2017-05-29T00:22:32.894Z,14.49
2017-05-29T00:23:42.844Z,14.45
2017-05-29T00:24:53.121Z,14.53
2017-05-29T00:26:03.076Z,14.45
2017-05-29T00:27:13.028Z,14.45
2017-05-29T00:28:22.671Z,14.43
2017-05-29T00:29:32.627Z,14.37
2017-05-29T00:30:43.104Z,14.34
2017-05-29T00:31:53.371Z,14.38
2017-05-29T00:33:03.333Z,14.34
2017-05-29T00:34:13.605Z,14.28
2017-05-29T00:35:23.553Z,14.18
2017-05-29T00:36:33.822Z,14.07
2017-05-29T00:37:44.086Z,13.95
2017-05-29T00:38:54.349Z,13.89
2017-05-29T00:40:04.315Z,13.87
2017-05-29T00:41:14.263Z,13.8
2017-05-29T00:42:23.593Z,13.78
2017-05-29T00:43:33.858Z,13.67
2017-05-29T00:44:44.123Z,13.67
2017-05-29T00:45:54.384Z,13.6
2017-05-29T00:47:04.642Z,13.62
2017-05-29T00:48:14.600Z,13.57
2017-05-29T00:49:24.550Z,13.54
2017-05-29T00:50:34.822Z,13.54
2017-05-29T00:51:45.088Z,13.5
2017-05-29T00:52:55.352Z,13.52
2017-05-29T00:54:05.303Z,13.58
2017-05-29T00:55:15.249Z,13.5
2017-05-29T00:56:25.512Z,13.4
2017-05-29T00:57:35.772Z,13.31
2017-05-29T00:58:45.723Z,13.26
2017-05-29T00:59:55.998Z,13.33
2017-05-29T01:01:06.265Z,13.2
2017-05-29T01:02:16.533Z,13.12
2017-05-29T01:03:26.806Z,13.09
2017-05-29T01:04:37.078Z,13.13
2017-05-29T01:05:47.347Z,13.11
2017-05-29T01:06:57.607Z,13.09
2017-05-29T01:08:07.245Z,13.12
2017-05-29T01:09:17.198Z,13.13
2017-05-29T01:10:27.150Z,13.17
2017-05-29T01:11:37.412Z,13.17
2017-05-29T01:12:47.678Z,13.16
2017-05-29T01:13:57.949Z,13.16
2017-05-29T01:15:07.904Z,13.11
2017-05-29T01:16:18.168Z,13.13
2017-05-29T01:17:28.445Z,13.13
2017-05-29T01:18:38.705Z,13.11
2017-05-29T01:19:48.964Z,13.09
2017-05-29T01:20:58.604Z,12.91
2017-05-29T01:22:08.567Z,12.98
2017-05-29T01:23:18.516Z,12.86
2017-05-29T01:24:28.777Z,12.9
2017-05-29T01:25:39.047Z,12.81
2017-05-29T01:26:49.306Z,12.83
2017-05-29T01:27:59.574Z,12.86
2017-05-29T01:29:09.838Z,12.81
2017-05-29T01:30:20.114Z,12.81
2017-05-29T01:31:30.378Z,12.7
2017-05-29T01:32:40.640Z,12.72
2017-05-29T01:33:50.907Z,12.68
2017-05-29T01:35:00.868Z,12.66
2017-05-29T01:36:10.823Z,12.65
2017-05-29T01:37:21.083Z,12.58
2017-05-29T01:38:31.351Z,12.63
2017-05-29T01:39:41.629Z,12.63
2017-05-29T01:40:51.896Z,12.58
2017-05-29T01:42:01.853Z,12.58
2017-05-29T01:43:11.814Z,12.62
2017-05-29T01:44:21.766Z,12.51
2017-05-29T01:45:31.713Z,12.54
2017-05-29T01:46:41.974Z,12.54
2017-05-29T01:47:52.250Z,12.55
2017-05-29T01:49:02.513Z,12.45
2017-05-29T01:50:12.459Z,12.48
2017-05-29T01:51:22.409Z,12.45
2017-05-29T01:52:32.362Z,12.45
2017-05-29T01:53:42.631Z,12.51
2017-05-29T01:54:52.898Z,12.37
2017-05-29T01:56:02.852Z,12.36
2017-05-29T01:57:13.119Z,12.4
2017-05-29T01:58:23.378Z,12.43
2017-05-29T01:59:32.707Z,12.54
2017-05-29T02:00:42.973Z,12.44
2017-05-29T02:01:53.246Z,12.43
2017-05-29T02:03:03.202Z,12.51
2017-05-29T02:04:13.154Z,12.61
2017-05-29T02:05:22.853Z,12.53
2017-05-29T02:06:33.117Z,12.53
2017-05-29T02:07:43.064Z,12.5
2017-05-29T02:08:53.333Z,12.58
2017-05-29T02:10:03.289Z,12.57
2017-05-29T02:11:12.611Z,12.63
2017-05-29T02:12:22.579Z,12.63
2017-05-29T02:13:32.845Z,12.86
2017-05-29T02:14:43.106Z,12.91
2017-05-29T02:15:53.057Z,12.95
2017-05-29T02:17:03.014Z,13.09
2017-05-29T02:18:13.284Z,13.17
2017-05-29T02:19:23.246Z,13.26
2017-05-29T02:20:33.509Z,13.26
2017-05-29T02:21:43.770Z,13.3
2017-05-29T02:22:54.101Z,13.3
2017-05-29T02:24:03.739Z,13.3
2017-05-29T02:25:14.012Z,13.3
2017-05-29T02:26:23.655Z,13.36
2017-05-29T02:27:33.294Z,13.33
2017-05-29T02:28:43.252Z,13.28
2017-05-29T02:29:53.519Z,13.33
2017-05-29T02:31:03.793Z,13.23
2017-05-29T02:32:14.053Z,13.31
2017-05-29T02:33:23.378Z,13.24
2017-05-29T02:34:33.337Z,13.24
2017-05-29T02:35:43.286Z,13.17
2017-05-29T02:36:53.548Z,13.13
2017-05-29T02:38:03.815Z,13.2
2017-05-29T02:39:13.453Z,13.12
2017-05-29T02:40:23.715Z,13.11
2017-05-29T02:41:33.977Z,13.19
2017-05-29T02:42:44.246Z,13.17
2017-05-29T02:43:54.514Z,13.13
2017-05-29T02:45:04.791Z,13.16
2017-05-29T02:46:15.056Z,13.19
2017-05-29T02:47:25.330Z,13.11
2017-05-29T02:48:35.283Z,13.11
2017-05-29T02:49:45.550Z,13.09
2017-05-29T02:50:55.504Z,13.13
2017-05-29T02:52:05.140Z,13.05
2017-05-29T02:53:15.093Z,13.01
2017-05-29T02:54:24.733Z,13.01
2017-05-29T02:55:35.002Z,12.95
2017-05-29T02:56:45.264Z,12.86
2017-05-29T02:57:55.538Z,12.88
2017-05-29T02:59:04.867Z,12.93
2017-05-29T03:00:14.498Z,12.83
2017-05-29T03:01:24.448Z,12.86
2017-05-29T03:02:34.404Z,12.81
2017-05-29T03:03:44.670Z,12.8
2017-05-29T03:04:54.936Z,12.8
2017-05-29T03:06:05.206Z,12.84
2017-05-29T03:07:14.836Z,12.8
2017-05-29T03:08:25.101Z,12.87
2017-05-29T03:09:34.737Z,12.9
2017-05-29T03:10:45.006Z,12.94
2017-05-29T03:11:55.272Z,12.99
2017-05-29T03:13:05.539Z,13.03
2017-05-29T03:14:15.505Z,13.16
2017-05-29T03:15:25.519Z,13.23
2017-05-29T03:16:35.468Z,13.26
2017-05-29T03:17:45.485Z,13.24
2017-05-29T03:18:55.754Z,13.3
2017-05-29T03:20:06.024Z,13.4
2017-05-29T03:21:15.983Z,13.52
2017-05-29T03:22:25.932Z,13.61
2017-05-29T03:23:36.200Z,13.75
2017-05-29T03:24:46.465Z,13.62
2017-05-29T03:25:56.424Z,13.68
2017-05-29T03:27:06.371Z,13.73
2017-05-29T03:28:16.323Z,13.78
2017-05-29T03:29:26.594Z,13.82
2017-05-29T03:30:36.854Z,13.79
2017-05-29T03:31:46.488Z,13.83
2017-05-29T03:32:56.758Z,13.89
2017-05-29T03:34:06.405Z,13.94
2017-05-29T03:35:16.041Z,13.95
2017-05-29T03:36:26.304Z,14.12
2017-05-29T03:37:36.572Z,14.15
2017-05-29T03:38:46.849Z,14.08
2017-05-29T03:39:57.129Z,14.15
2017-05-29T03:41:07.336Z,14.2
2017-05-29T03:42:17.292Z,14.23
2017-05-29T03:43:27.235Z,14.26
2017-05-29T03:44:37.184Z,14.3
2017-05-29T03:45:47.447Z,14.37
2017-05-29T03:46:57.725Z,14.43
2017-05-29T03:48:07.998Z,14.36
2017-05-29T03:49:17.959Z,14.43
2017-05-29T03:50:27.603Z,14.37
2017-05-29T03:51:37.873Z,14.36
2017-05-29T03:52:48.142Z,14.55
2017-05-29T03:53:58.414Z,14.52
2017-05-29T03:55:08.676Z,14.52
2017-05-29T03:56:18.309Z,14.52
2017-05-29T03:57:28.266Z,14.67
2017-05-29T03:58:38.534Z,14.61
2017-05-29T03:59:48.489Z,14.63
2017-05-29T04:00:58.759Z,14.63
2017-05-29T04:02:08.726Z,14.62
2017-05-29T04:03:18.357Z,14.66
2017-05-29T04:04:28.311Z,14.7
2017-05-29T04:05:38.264Z,14.67
2017-05-29T04:06:48.532Z,14.71
2017-05-29T04:07:58.800Z,14.77
2017-05-29T04:09:09.065Z,14.73
2017-05-29T04:10:19.334Z,14.73
2017-05-29T04:11:28.972Z,14.82
2017-05-29T04:12:38.919Z,14.74
2017-05-29T04:13:49.208Z,14.78
2017-05-29T04:14:59.480Z,14.68
2017-05-29T04:16:09.436Z,14.81
2017-05-29T04:17:19.715Z,14.93
2017-05-29T04:18:29.352Z,14.87
2017-05-29T04:19:39.305Z,14.96
2017-05-29T04:20:49.568Z,14.93
2017-05-29T04:21:59.836Z,14.9
2017-05-29T04:23:10.109Z,14.92
2017-05-29T04:24:20.374Z,14.89
2017-05-29T04:25:30.636Z,14.9
2017-05-29T04:26:40.596Z,15.07
2017-05-29T04:27:50.868Z,15.07
2017-05-29T04:29:00.514Z,15.05
2017-05-29T04:30:10.152Z,15.1
2017-05-29T04:31:20.427Z,15.14
2017-05-29T04:32:30.380Z,15.17
2017-05-29T04:33:40.334Z,15.27
2017-05-29T04:34:50.284Z,15.22
2017-05-29T04:36:00.246Z,15.23
2017-05-29T04:37:10.204Z,15.26
2017-05-29T04:38:20.472Z,15.15
2017-05-29T04:39:30.421Z,15.26
2017-05-29T04:40:40.691Z,15.12
2017-05-29T04:41:50.646Z,15.08
2017-05-29T04:43:00.288Z,14.97
2017-05-29T04:44:10.244Z,15.02
2017-05-29T04:45:20.514Z,14.9
2017-05-29T04:46:30.783Z,14.9
2017-05-29T04:47:41.053Z,14.7
2017-05-29T04:48:52.750Z,14.81
2017-05-29T04:50:02.710Z,14.61
2017-05-29T04:51:12.680Z,14.71
2017-05-29T04:52:22.635Z,14.82
2017-05-29T04:53:32.584Z,14.78
2017-05-29T04:54:42.855Z,14.89
2017-05-29T04:55:53.129Z,14.94
2017-05-29T04:57:02.779Z,14.96
2017-05-29T04:58:12.423Z,15.02
2017-05-29T04:59:22.374Z,15.02
2017-05-29T05:00:32.330Z,14.97
2017-05-29T05:01:42.596Z,14.85
2017-05-29T05:02:52.872Z,14.96
2017-05-29T05:04:02.828Z,14.99
2017-05-29T05:05:13.097Z,14.99
2017-05-29T05:06:23.363Z,14.99
2017-05-29T05:07:33.003Z,14.97
2017-05-29T05:08:43.279Z,15.07
2017-05-29T05:09:53.546Z,15
2017-05-29T05:11:03.814Z,15.02
2017-05-29T05:12:13.769Z,15.07
2017-05-29T05:13:24.038Z,15.14
2017-05-29T05:14:33.366Z,15.15
2017-05-29T05:15:43.628Z,15.18
2017-05-29T05:16:53.901Z,15.19
2017-05-29T05:18:04.223Z,15.32
2017-05-29T05:19:14.178Z,15.45
2017-05-29T05:20:24.135Z,15.39
2017-05-29T05:21:34.103Z,15.48
2017-05-29T05:22:44.058Z,15.44
2017-05-29T05:23:54.015Z,15.51
2017-05-29T05:25:04.291Z,15.59
2017-05-29T05:26:14.553Z,15.63
2017-05-29T05:27:24.515Z,15.69
2017-05-29T05:28:34.159Z,15.78
2017-05-29T05:29:44.439Z,15.73
2017-05-29T05:30:54.713Z,15.84
2017-05-29T05:32:04.659Z,15.87
2017-05-29T05:33:14.305Z,15.92
2017-05-29T05:34:24.575Z,15.94
2017-05-29T05:35:34.533Z,15.91
2017-05-29T05:36:44.489Z,15.91
2017-05-29T05:37:54.755Z,15.96
2017-05-29T05:39:05.024Z,15.99
2017-05-29T05:40:15.306Z,16.1
2017-05-29T05:41:25.570Z,16.13
2017-05-29T05:42:35.881Z,16.22
2017-05-29T05:43:46.175Z,16.26
2017-05-29T05:44:55.823Z,16.32
2017-05-29T05:46:05.774Z,16.36
2017-05-29T05:47:15.416Z,16.43
2017-05-29T05:48:25.691Z,16.49
2017-05-29T05:49:35.967Z,16.58
2017-05-29T05:50:46.240Z,16.69
2017-05-29T05:51:56.204Z,16.57
2017-05-29T05:53:06.160Z,16.64
2017-05-29T05:54:16.436Z,16.65
2017-05-29T05:55:26.388Z,16.54
2017-05-29T05:56:36.085Z,16.62
2017-05-29T05:57:46.360Z,16.57
2017-05-29T05:58:56.009Z,16.57
2017-05-29T06:00:06.283Z,16.64
2017-05-29T06:01:16.556Z,16.58
2017-05-29T06:02:26.837Z,16.72
2017-05-29T06:03:36.852Z,16.55
2017-05-29T06:04:47.129Z,16.59
2017-05-29T06:05:57.397Z,16.72
2017-05-29T06:07:07.663Z,16.72
2017-05-29T06:08:17.930Z,16.76
2017-05-29T06:09:27.568Z,16.83
2017-05-29T06:10:37.519Z,16.82
2017-05-29T06:11:47.476Z,16.92
2017-05-29T06:12:57.754Z,16.97
2017-05-29T06:14:07.708Z,17.04
2017-05-29T06:15:17.347Z,17.22
2017-05-29T06:16:27.620Z,17.23
2017-05-29T06:17:37.576Z,17.24
2017-05-29T06:18:47.854Z,17.27
2017-05-29T06:19:58.126Z,17.32
2017-05-29T06:21:08.401Z,17.42
2017-05-29T06:22:18.355Z,17.46
2017-05-29T06:23:28.626Z,17.5
2017-05-29T06:24:38.591Z,17.65
2017-05-29T06:25:48.857Z,17.72
2017-05-29T06:26:59.131Z,17.79
2017-05-29T06:28:09.400Z,17.91
2017-05-29T06:29:19.671Z,17.91
2017-05-29T06:30:29.946Z,17.97
2017-05-29T06:31:40.215Z,18.09
2017-05-29T06:32:50.487Z,18.12
2017-05-29T06:34:00.134Z,18.16
2017-05-29T06:35:09.776Z,18.12
2017-05-29T06:36:20.347Z,18.21
2017-05-29T06:37:30.374Z,18.16
2017-05-29T06:38:40.659Z,18.23
2017-05-29T06:39:50.925Z,18.28
2017-05-29T06:41:00.878Z,18.27
2017-05-29T06:42:10.220Z,18.31
2017-05-29T06:43:20.177Z,18.28
2017-05-29T06:44:30.452Z,18.34
2017-05-29T06:45:40.729Z,18.26
2017-05-29T06:46:51.004Z,18.36
2017-05-29T06:48:01.273Z,18.24
2017-05-29T06:49:11.552Z,18.23
2017-05-29T06:50:21.819Z,18.33
2017-05-29T06:51:31.782Z,18.34
2017-05-29T06:52:41.747Z,18.41
2017-05-29T06:53:52.022Z,18.41
2017-05-29T06:55:02.298Z,18.33
2017-05-29T06:56:12.574Z,18.45
2017-05-29T06:57:22.542Z,18.45
2017-05-29T06:58:32.505Z,18.52
2017-05-29T06:59:42.479Z,18.55
2017-05-29T07:00:52.120Z,18.48
2017-05-29T07:02:02.395Z,18.64
2017-05-29T07:03:12.356Z,18.67
2017-05-29T07:04:22.000Z,18.76
2017-05-29T07:05:31.957Z,18.79
2017-05-29T07:06:42.282Z,18.91
2017-05-29T07:07:52.551Z,18.81
2017-05-29T07:09:02.823Z,18.91
2017-05-29T07:10:12.790Z,18.86
2017-05-29T07:11:22.746Z,18.79
2017-05-29T07:12:33.021Z,18.91
2017-05-29T07:13:43.293Z,18.88
2017-05-29T07:14:53.570Z,18.96
2017-05-29T07:16:03.539Z,18.89
2017-05-29T07:17:13.809Z,18.92
2017-05-29T07:18:23.769Z,18.88
2017-05-29T07:19:33.737Z,18.85
2017-05-29T07:20:43.694Z,18.82
2017-05-29T07:21:53.960Z,18.76
2017-05-29T07:23:04.234Z,18.79
2017-05-29T07:24:14.501Z,18.68
2017-05-29T07:25:24.462Z,18.66
2017-05-29T07:26:34.738Z,18.66
2017-05-29T07:27:45.001Z,18.63
2017-05-29T07:28:56.960Z,18.63
2017-05-29T07:30:07.234Z,18.66
2017-05-29T07:31:17.506Z,18.67
2017-05-29T07:32:27.142Z,18.64
2017-05-29T07:33:37.417Z,18.7
2017-05-29T07:34:47.378Z,18.78
2017-05-29T07:35:57.337Z,18.74
2017-05-29T07:37:07.616Z,18.81
2017-05-29T07:38:17.261Z,18.76
2017-05-29T07:39:27.294Z,18.82
2017-05-29T07:40:37.286Z,18.85
2017-05-29T07:41:47.241Z,18.89
2017-05-29T07:42:57.520Z,18.92
2017-05-29T07:44:07.783Z,19.08
2017-05-29T07:45:17.436Z,19.11
2017-05-29T07:46:27.078Z,19.15
2017-05-29T07:47:37.346Z,19.15
2017-05-29T07:48:46.989Z,19.17
2017-05-29T07:49:56.941Z,19.09
2017-05-29T07:51:07.215Z,19.17
2017-05-29T07:52:17.172Z,19.22
2017-05-29T07:53:27.442Z,19.26
2017-05-29T07:54:37.410Z,19.26
2017-05-29T07:55:47.680Z,19.22
2017-05-29T07:56:57.630Z,19.09
2017-05-29T07:58:07.586Z,19.07
2017-05-29T07:59:17.858Z,19.22
2017-05-29T08:00:28.131Z,19.16
2017-05-29T08:01:38.400Z,19.17
2017-05-29T08:02:48.359Z,19.11
2017-05-29T08:03:58.637Z,19.11
2017-05-29T08:05:08.282Z,19.15
2017-05-29T08:06:17.922Z,19.11
2017-05-29T08:07:27.890Z,19.17
2017-05-29T08:08:37.849Z,19.17
2017-05-29T08:09:47.743Z,19.24
2017-05-29T08:10:57.697Z,19.11
2017-05-29T08:12:07.662Z,19.22
2017-05-29T08:13:17.940Z,19.16
2017-05-29T08:14:27.587Z,19.17
2017-05-29T08:15:37.858Z,19.15
2017-05-29T08:16:47.506Z,19.2
2017-05-29T08:17:57.466Z,19.12
2017-05-29T08:19:07.736Z,19.17
2017-05-29T08:20:17.378Z,19.22
2017-05-29T08:21:27.342Z,19
2017-05-29T08:22:37.296Z,19.11
2017-05-29T08:23:47.255Z,19.11
2017-05-29T08:24:57.572Z,19.09
2017-05-29T08:26:07.533Z,19.12
2017-05-29T08:27:17.492Z,19.11
2017-05-29T08:28:27.448Z,19.05
2017-05-29T08:29:37.719Z,19.12
2017-05-29T08:30:47.681Z,19.11
2017-05-29T08:31:57.637Z,19.22
2017-05-29T08:33:07.589Z,19.22
2017-05-29T08:34:17.858Z,19.26
2017-05-29T08:35:27.506Z,19.2
2017-05-29T08:36:37.502Z,19.27
2017-05-29T08:37:47.778Z,19.22
2017-05-29T08:39:00.073Z,19.23
2017-05-29T08:40:10.027Z,19.24
2017-05-29T08:41:19.669Z,19.35
2017-05-29T08:42:29.935Z,19.47
2017-05-29T08:43:40.230Z,19.55
2017-05-29T08:44:50.190Z,19.66
2017-05-29T08:46:00.146Z,19.64
2017-05-29T08:47:09.793Z,19.74
2017-05-29T08:48:20.068Z,19.77
2017-05-29T08:49:30.344Z,19.89
2017-05-29T08:50:40.303Z,19.92
2017-05-29T08:51:50.575Z,19.99
2017-05-29T08:53:00.531Z,19.78
2017-05-29T08:54:10.487Z,20
2017-05-29T08:55:20.762Z,20.04
2017-05-29T08:56:30.409Z,20.11
2017-05-29T08:57:40.715Z,20.27
2017-05-29T08:58:50.987Z,20.3
2017-05-29T09:00:01.266Z,20.3
2017-05-29T09:01:11.575Z,20.32
2017-05-29T09:02:21.535Z,20.29
2017-05-29T09:03:31.695Z,20.46
2017-05-29T09:04:41.660Z,20.48
2017-05-29T09:05:51.926Z,20.42
2017-05-29T09:07:02.201Z,20.55
2017-05-29T09:08:11.848Z,20.64
2017-05-29T09:09:21.811Z,20.75
2017-05-29T09:10:31.467Z,20.78
2017-05-29T09:11:41.475Z,20.96
2017-05-29T09:12:51.751Z,21.11
2017-05-29T09:14:01.711Z,21.38
2017-05-29T09:15:11.980Z,21.25
2017-05-29T09:16:21.630Z,21.22
2017-05-29T09:17:31.896Z,21.38
2017-05-29T09:18:41.857Z,21.62
2017-05-29T09:19:52.126Z,21.77
2017-05-29T09:21:02.389Z,21.72
2017-05-29T09:22:12.343Z,21.88
2017-05-29T09:23:22.620Z,21.91
2017-05-29T09:24:32.900Z,22.01
2017-05-29T09:25:43.182Z,21.99
2017-05-29T09:26:53.452Z,22.04
2017-05-29T09:28:03.105Z,21.85
2017-05-29T09:29:13.383Z,21.85
2017-05-29T09:30:23.029Z,21.85
2017-05-29T09:31:33.307Z,21.81
2017-05-29T09:32:43.584Z,21.89
2017-05-29T09:33:53.229Z,21.78
2017-05-29T09:35:03.192Z,21.85
2017-05-29T09:36:13.145Z,21.78
2017-05-29T09:37:22.797Z,21.75
2017-05-29T09:38:33.069Z,21.8
2017-05-29T09:39:42.086Z,21.81
2017-05-29T09:40:52.049Z,21.72
2017-05-29T09:42:02.313Z,21.66
2017-05-29T09:43:12.589Z,21.66
2017-05-29T09:44:22.552Z,21.45
2017-05-29T09:45:32.522Z,21.33
2017-05-29T09:46:42.792Z,21.38
2017-05-29T09:47:52.755Z,21.33
2017-05-29T09:49:02.401Z,21.23
2017-05-29T09:50:12.672Z,21.22
2017-05-29T09:51:22.947Z,21.04
2017-05-29T09:52:33.217Z,21.01
2017-05-29T09:53:43.716Z,20.93
2017-05-29T09:54:53.990Z,20.95
2017-05-29T09:56:04.255Z,20.93
2017-05-29T09:57:14.224Z,20.93
2017-05-29T09:58:24.181Z,20.9
2017-05-29T09:59:34.145Z,20.92
2017-05-29T10:00:44.107Z,20.95
2017-05-29T10:01:53.439Z,20.9
2017-05-29T10:03:03.394Z,21.01
2017-05-29T10:04:13.351Z,20.96
2017-05-29T10:05:22.679Z,20.96
2017-05-29T10:06:32.643Z,21.01
2017-05-29T10:07:42.285Z,21.11
2017-05-29T10:08:52.569Z,21.08
2017-05-29T10:10:02.842Z,21.07
2017-05-29T10:11:12.484Z,21.15
2017-05-29T10:12:24.445Z,21.2
2017-05-29T10:13:34.713Z,21.28
2017-05-29T10:14:44.689Z,21.32
2017-05-29T10:15:54.959Z,21.38
2017-05-29T10:17:05.461Z,21.33
2017-05-29T10:18:15.735Z,21.41
2017-05-29T10:19:25.063Z,21.48
2017-05-29T10:20:35.334Z,21.5
2017-05-29T10:21:45.606Z,21.44
2017-05-29T10:22:55.563Z,21.47
2017-05-29T10:24:05.836Z,21.54
2017-05-29T10:25:15.802Z,21.63
2017-05-29T10:26:25.452Z,21.72
2017-05-29T10:27:34.780Z,21.62
2017-05-29T10:28:45.046Z,21.59
2017-05-29T10:29:55.318Z,21.63
2017-05-29T10:31:05.278Z,21.58
2017-05-29T10:32:15.236Z,21.59
2017-05-29T10:33:25.201Z,21.47
2017-05-29T10:34:35.466Z,21.6
2017-05-29T10:35:45.739Z,21.6
2017-05-29T10:36:55.712Z,21.69
2017-05-29T10:38:05.990Z,21.91
2017-05-29T10:39:16.255Z,22.06
2017-05-29T10:40:26.208Z,22.1
2017-05-29T10:41:36.171Z,22.1
2017-05-29T10:42:46.135Z,22.15
2017-05-29T10:43:56.407Z,22.07
2017-05-29T10:45:06.364Z,22.18
2017-05-29T10:46:16.314Z,22.12
2017-05-29T10:47:26.588Z,22.19
2017-05-29T10:48:36.545Z,22.1
2017-05-29T10:49:46.814Z,22.15
2017-05-29T10:50:57.087Z,22.19
2017-05-29T10:52:07.368Z,22.25
2017-05-29T10:53:17.318Z,22.28
2017-05-29T10:54:27.284Z,22.21
2017-05-29T10:55:37.245Z,22.28
2017-05-29T10:56:47.519Z,22.36
2017-05-29T10:57:57.475Z,22.43
2017-05-29T10:59:07.799Z,22.51
2017-05-29T11:00:17.754Z,22.47
2017-05-29T11:01:28.030Z,22.46
2017-05-29T11:02:38.000Z,22.56
2017-05-29T11:03:47.640Z,22.46
2017-05-29T11:04:57.931Z,22.46
2017-05-29T11:06:07.891Z,22.46
2017-05-29T11:07:17.762Z,22.44
2017-05-29T11:08:27.413Z,22.51
2017-05-29T11:09:37.686Z,22.52
2017-05-29T11:10:47.336Z,22.52
2017-05-29T11:11:57.292Z,22.52
2017-05-29T11:13:07.569Z,22.53
2017-05-29T11:14:17.525Z,22.56
2017-05-29T11:15:27.801Z,22.51
2017-05-29T11:16:37.757Z,22.51
2017-05-29T11:17:48.045Z,22.55
2017-05-29T11:18:58.007Z,22.56
2017-05-29T11:20:07.969Z,22.53
2017-05-29T11:21:17.617Z,22.51
2017-05-29T11:22:27.262Z,22.4
2017-05-29T11:23:37.530Z,22.36
2017-05-29T11:24:47.807Z,22.33
2017-05-29T11:25:57.450Z,22.37
2017-05-29T11:27:07.477Z,22.43
2017-05-29T11:28:17.755Z,22.38
2017-05-29T11:29:27.399Z,22.52
2017-05-29T11:30:37.669Z,22.65
2017-05-29T11:31:47.943Z,22.84
2017-05-29T11:32:58.220Z,23.01
2017-05-29T11:34:07.862Z,23.32
2017-05-29T11:35:17.510Z,23.71
2017-05-29T11:36:27.782Z,23.95
2017-05-29T11:37:38.054Z,23.81
2017-05-29T11:38:48.338Z,23.91
2017-05-29T11:39:58.613Z,23.91
2017-05-29T11:41:08.885Z,23.86
2017-05-29T11:42:18.526Z,23.69
2017-05-29T11:43:28.800Z,23.77
2017-05-29T11:44:38.772Z,23.7
2017-05-29T11:45:48.734Z,23.48
2017-05-29T11:46:59.006Z,23.42
2017-05-29T11:48:09.347Z,23.29
2017-05-29T11:49:18.994Z,23.21
2017-05-29T11:50:28.645Z,23.11
2017-05-29T11:51:38.603Z,23.06
2017-05-29T11:52:48.880Z,23.04
2017-05-29T11:53:58.834Z,22.99
2017-05-29T11:55:08.794Z,22.96
2017-05-29T11:56:18.440Z,22.96
2017-05-29T11:57:28.399Z,22.88
2017-05-29T11:58:38.360Z,22.63
2017-05-29T11:59:48.316Z,22.59
2017-05-29T12:00:58.597Z,22.55
2017-05-29T12:02:08.242Z,22.52
2017-05-29T12:03:17.567Z,22.49
2017-05-29T12:04:27.527Z,22.43
2017-05-29T12:05:37.801Z,22.43
2017-05-29T12:06:47.759Z,22.33
2017-05-29T12:07:57.395Z,22.26
2017-05-29T12:09:07.354Z,22.06
2017-05-29T12:10:16.999Z,22.1
2017-05-29T12:11:26.641Z,22
2017-05-29T12:12:36.283Z,21.89
2017-05-29T12:13:46.238Z,21.89
2017-05-29T12:14:56.513Z,21.85
2017-05-29T12:16:06.152Z,21.85
2017-05-29T12:17:16.427Z,21.81
2017-05-29T12:18:26.699Z,21.78
2017-05-29T12:19:36.344Z,21.85
2017-05-29T12:20:46.616Z,21.75
2017-05-29T12:21:56.894Z,21.77
2017-05-29T12:23:07.168Z,21.7
2017-05-29T12:24:17.129Z,21.72
2017-05-29T12:25:27.397Z,21.75
2017-05-29T12:26:37.680Z,21.72
2017-05-29T12:27:47.964Z,21.68
2017-05-29T12:28:57.922Z,21.72
2017-05-29T12:30:08.199Z,21.7
2017-05-29T12:31:18.157Z,21.63
2017-05-29T12:32:28.118Z,21.69
2017-05-29T12:33:38.399Z,21.65
2017-05-29T12:34:48.673Z,21.66
2017-05-29T12:35:58.941Z,21.8
2017-05-29T12:37:08.901Z,21.69
2017-05-29T12:38:18.863Z,21.78
2017-05-29T12:39:29.135Z,21.92
2017-05-29T12:40:39.095Z,21.97
2017-05-29T12:41:49.367Z,22.01
2017-05-29T12:42:59.643Z,22.1
2017-05-29T12:44:09.606Z,22.06
2017-05-29T12:45:19.256Z,22.08
2017-05-29T12:46:29.549Z,22.08
2017-05-29T12:47:39.506Z,22.04
2017-05-29T12:48:49.468Z,22.06
2017-05-29T12:49:59.465Z,22.1
2017-05-29T12:51:09.746Z,22.16
2017-05-29T12:52:19.705Z,22.14
2017-05-29T12:53:29.661Z,22.12
2017-05-29T12:54:39.624Z,22.21
2017-05-29T12:55:50.156Z,22.23
2017-05-29T12:57:00.139Z,22.41
2017-05-29T12:58:10.414Z,22.49
2017-05-29T12:59:20.685Z,22.52
2017-05-29T13:00:30.644Z,22.55
2017-05-29T13:01:40.914Z,22.7
2017-05-29T13:02:51.193Z,22.74
2017-05-29T13:04:01.464Z,22.89
2017-05-29T13:05:11.114Z,22.93
2017-05-29T13:06:40.609Z,22.86
2017-05-29T13:07:50.569Z,22.92
2017-05-29T13:09:00.838Z,22.93
2017-05-29T13:10:10.805Z,22.93
2017-05-29T13:11:19.827Z,22.95
2017-05-29T13:12:30.099Z,23.04
2017-05-29T13:13:40.054Z,23.06
2017-05-29T13:14:50.355Z,23.13
2017-05-29T13:16:00.312Z,23.21
2017-05-29T13:17:10.273Z,23.55
2017-05-29T13:18:20.544Z,23.81
2017-05-29T13:19:30.836Z,23.99
2017-05-29T13:20:40.796Z,24.36
2017-05-29T13:21:51.071Z,24.78
2017-05-29T13:23:01.026Z,25.11
2017-05-29T13:24:10.987Z,25.34
2017-05-29T13:25:20.636Z,25.51
2017-05-29T13:26:30.591Z,25.54
2017-05-29T13:27:40.557Z,25.61
2017-05-29T13:28:50.516Z,25.58
2017-05-29T13:30:00.796Z,25.58
2017-05-29T13:31:10.753Z,25.58
2017-05-29T13:32:20.405Z,25.61
2017-05-29T13:33:30.372Z,25.41
2017-05-29T13:34:40.015Z,25.11
2017-05-29T13:35:50.292Z,25.26
2017-05-29T13:37:00.253Z,25.4
2017-05-29T13:38:10.626Z,25.46
2017-05-29T13:39:21.618Z,25.63
2017-05-29T13:40:31.652Z,25.66
2017-05-29T13:41:41.931Z,25.54
2017-05-29T13:42:52.216Z,25.19
2017-05-29T13:44:02.493Z,25.3
2017-05-29T13:45:12.779Z,25.49
2017-05-29T13:46:22.739Z,25.03
2017-05-29T13:47:33.016Z,24.89
2017-05-29T13:48:43.294Z,24.1
2017-05-29T13:49:53.569Z,23.55
2017-05-29T13:51:03.853Z,23.04
2017-05-29T13:52:14.126Z,22.78
2017-05-29T13:53:24.084Z,22.46
2017-05-29T13:54:33.729Z,22.49
2017-05-29T13:55:43.695Z,22.41
2017-05-29T13:56:53.658Z,22.47
2017-05-29T13:58:03.938Z,22.61
2017-05-29T13:59:14.215Z,22.46
2017-05-29T14:00:24.175Z,22.33
2017-05-29T14:01:34.451Z,22.06
2017-05-29T14:02:44.418Z,22.15
2017-05-29T14:03:54.908Z,22.31
2017-05-29T14:05:04.881Z,22.38
2017-05-29T14:06:14.847Z,22.44
2017-05-29T14:07:24.814Z,22.53
2017-05-29T14:08:34.781Z,22.46
2017-05-29T14:09:44.737Z,22.44
2017-05-29T14:10:54.698Z,22.58
2017-05-29T14:12:04.656Z,22.81
2017-05-29T14:13:14.934Z,22.89
2017-05-29T14:14:24.266Z,22.95
2017-05-29T14:15:34.224Z,22.68
2017-05-29T14:16:44.188Z,22.44
2017-05-29T14:17:54.462Z,22.67
2017-05-29T14:19:04.733Z,22.96
2017-05-29T14:20:15.012Z,23.29
2017-05-29T14:21:24.967Z,23.56
2017-05-29T14:22:34.935Z,23.76
2017-05-29T14:23:44.894Z,23.99
2017-05-29T14:24:54.848Z,24.36
2017-05-29T14:26:05.124Z,24.65
2017-05-29T14:27:14.782Z,25.03
2017-05-29T14:28:24.427Z,25.48
2017-05-29T14:29:34.712Z,25.98
2017-05-29T14:30:44.987Z,26.26
2017-05-29T14:31:54.649Z,26.6
2017-05-29T14:33:04.925Z,27.28
2017-05-29T14:34:15.206Z,27.47
2017-05-29T14:35:24.852Z,28.03
2017-05-29T14:36:34.816Z,28.38
2017-05-29T14:37:44.780Z,28.47
2017-05-29T14:38:55.065Z,28.5
2017-05-29T14:40:05.026Z,28.7
2017-05-29T14:41:15.304Z,28.89
2017-05-29T14:42:24.954Z,29
2017-05-29T14:43:35.235Z,29.02
2017-05-29T14:44:44.876Z,29.03
2017-05-29T14:45:55.176Z,29
2017-05-29T14:47:05.451Z,28.77
2017-05-29T14:48:15.410Z,28.67
2017-05-29T14:49:25.376Z,28.7
2017-05-29T14:50:35.657Z,28.68
2017-05-29T14:51:45.937Z,28.75
2017-05-29T14:52:56.221Z,28.75
2017-05-29T14:54:06.493Z,28.67
2017-05-29T14:55:16.775Z,28.56
2017-05-29T14:56:26.427Z,28.68
2017-05-29T14:57:36.713Z,28.56
2017-05-29T14:58:46.995Z,28.46
2017-05-29T14:59:56.954Z,28.38
2017-05-29T15:01:06.913Z,28.25
2017-05-29T15:02:16.923Z,28.13
2017-05-29T15:03:26.884Z,27.98
2017-05-29T15:04:37.169Z,28.08
2017-05-29T15:05:47.447Z,28.13